createdAt,value
2019-01-11T00:00:07.904Z,1.60
2019-01-11T00:02:33.967Z,1.60
2019-01-11T00:05:00.195Z,1.60
2019-01-11T00:07:26.190Z,1.60
2019-01-11T00:09:52.231Z,1.60
2019-01-11T00:12:18.351Z,1.60
2019-01-11T00:14:44.374Z,1.60
2019-01-11T00:17:10.397Z,1.50
2019-01-11T00:19:36.403Z,1.50
2019-01-11T00:22:02.634Z,1.50
2019-01-11T00:24:28.656Z,1.60
2019-01-11T00:26:54.695Z,1.60
2019-01-11T00:29:20.731Z,1.70
2019-01-11T00:31:46.769Z,1.70
2019-01-11T00:34:12.775Z,1.80
2019-01-11T00:36:38.815Z,1.80
2019-01-11T00:39:04.996Z,1.90
2019-01-11T00:41:31.043Z,1.90
2019-01-11T00:43:57.071Z,1.90
2019-01-11T00:46:23.100Z,1.90
2019-01-11T00:48:49.143Z,1.90
2019-01-11T00:51:15.199Z,1.90
2019-01-11T00:53:41.247Z,2.00
2019-01-11T00:56:07.247Z,2.00
2019-01-11T00:58:33.291Z,2.10
2019-01-11T01:00:59.315Z,2.10
2019-01-11T01:03:25.359Z,2.10
2019-01-11T01:05:51.391Z,2.10
2019-01-11T01:08:17.403Z,2.20
2019-01-11T01:10:43.420Z,2.20
2019-01-11T01:13:09.437Z,2.20
2019-01-11T01:15:35.483Z,2.20
2019-01-11T01:18:01.496Z,2.10
2019-01-11T01:20:27.531Z,2.10
2019-01-11T01:22:53.543Z,2.10
2019-01-11T01:25:19.582Z,2.20
2019-01-11T01:27:45.608Z,2.20
2019-01-11T01:30:14.765Z,2.20
2019-01-11T01:32:40.766Z,2.20
2019-01-11T01:35:06.800Z,2.20
2019-01-11T01:37:32.852Z,2.10
2019-01-11T01:39:58.895Z,2.00
2019-01-11T01:42:24.923Z,2.00
2019-01-11T01:44:50.947Z,2.10
2019-01-11T01:47:16.975Z,2.20
2019-01-11T01:49:43.000Z,2.30
2019-01-11T01:52:09.031Z,2.30
2019-01-11T01:54:35.043Z,2.20
2019-01-11T01:57:01.075Z,2.20
2019-01-11T01:59:28.175Z,2.20
2019-01-11T02:01:54.227Z,2.20
2019-01-11T02:04:20.738Z,2.20
2019-01-11T02:06:46.782Z,2.20
2019-01-11T02:09:12.815Z,2.30
2019-01-11T02:11:39.658Z,2.30
2019-01-11T02:14:05.703Z,2.30
2019-01-11T02:16:31.725Z,2.30
2019-01-11T02:18:57.783Z,2.40
2019-01-11T02:21:23.822Z,2.40
2019-01-11T02:23:49.981Z,2.50
2019-01-11T02:26:16.004Z,2.50
2019-01-11T02:28:42.043Z,2.60
2019-01-11T02:31:08.069Z,2.60
2019-01-11T02:33:34.171Z,2.60
2019-01-11T02:36:00.252Z,2.60
2019-01-11T02:38:26.407Z,2.60
2019-01-11T02:40:52.448Z,2.60
2019-01-11T02:43:18.467Z,2.60
2019-01-11T02:45:44.517Z,2.60
2019-01-11T02:48:10.551Z,2.60
2019-01-11T02:50:36.567Z,2.60
2019-01-11T02:53:02.603Z,2.60
2019-01-11T02:55:28.622Z,2.60
2019-01-11T02:57:54.672Z,2.60
2019-01-11T03:00:20.685Z,2.60
2019-01-11T03:02:46.723Z,2.60
2019-01-11T03:05:12.765Z,2.70
2019-01-11T03:07:38.883Z,2.70
2019-01-11T03:10:08.736Z,2.70
2019-01-11T03:12:34.887Z,2.60
2019-01-11T03:15:03.624Z,2.60
2019-01-11T03:17:29.668Z,2.60
2019-01-11T03:19:55.741Z,2.60
2019-01-11T03:22:21.747Z,2.70
2019-01-11T03:24:47.787Z,2.70
2019-01-11T03:27:13.867Z,2.70
2019-01-11T03:29:39.915Z,2.70
2019-01-11T03:32:05.956Z,2.70
2019-01-11T03:34:34.089Z,2.70
2019-01-11T03:37:00.168Z,2.80
2019-01-11T03:39:26.187Z,2.80
2019-01-11T03:41:54.132Z,2.80
2019-01-11T03:44:20.161Z,2.80
2019-01-11T03:46:46.191Z,2.80
2019-01-11T03:49:12.208Z,2.80
2019-01-11T03:51:38.292Z,2.70
2019-01-11T03:54:04.335Z,2.70
2019-01-11T03:56:30.352Z,2.70
2019-01-11T03:58:56.387Z,2.70
2019-01-11T04:01:22.427Z,2.70
2019-01-11T04:03:48.460Z,2.80
2019-01-11T04:06:14.476Z,2.80
2019-01-11T04:08:40.523Z,2.80
2019-01-11T04:11:06.532Z,2.80
2019-01-11T04:13:32.548Z,2.80
2019-01-11T04:15:58.571Z,2.80
2019-01-11T04:18:31.916Z,2.80
2019-01-11T04:20:57.947Z,2.70
2019-01-11T04:23:23.963Z,3.30
2019-01-11T04:25:50.028Z,2.90
2019-01-11T04:28:16.052Z,2.90
2019-01-11T04:30:42.100Z,2.90
2019-01-11T04:33:08.123Z,2.90
2019-01-11T04:35:34.201Z,3.00
2019-01-11T04:38:00.211Z,2.90
2019-01-11T04:40:26.268Z,3.00
2019-01-11T04:42:52.311Z,3.00
2019-01-11T04:45:18.343Z,3.00
2019-01-11T04:47:44.386Z,3.10
2019-01-11T04:50:13.597Z,3.00
2019-01-11T04:52:39.610Z,3.00
2019-01-11T04:55:06.632Z,2.90
2019-01-11T04:57:32.764Z,2.80
2019-01-11T04:59:58.788Z,2.70
2019-01-11T05:02:24.836Z,2.60
2019-01-11T05:04:50.900Z,2.50
2019-01-11T05:07:16.928Z,2.50
2019-01-11T05:09:42.956Z,2.40
2019-01-11T05:12:09.007Z,2.50
2019-01-11T05:14:35.084Z,2.50
2019-01-11T05:17:20.996Z,2.50
2019-01-11T05:19:47.019Z,2.40
2019-01-11T05:22:13.072Z,2.50
2019-01-11T05:24:39.145Z,2.50
2019-01-11T05:27:05.241Z,2.50
2019-01-11T05:29:31.251Z,2.50
2019-01-11T05:31:57.292Z,2.50
2019-01-11T05:34:23.319Z,2.50
2019-01-11T05:36:49.382Z,2.50
2019-01-11T05:39:15.399Z,2.60
2019-01-11T05:41:41.438Z,2.60
2019-01-11T05:44:07.465Z,2.80
2019-01-11T05:46:33.511Z,2.90
2019-01-11T05:48:59.591Z,3.10
2019-01-11T05:51:25.623Z,3.20
2019-01-11T05:53:51.659Z,3.30
2019-01-11T05:56:18.428Z,3.30
2019-01-11T05:58:46.348Z,3.40
2019-01-11T06:01:12.556Z,3.40
2019-01-11T06:03:39.962Z,3.50
2019-01-11T06:06:06.009Z,3.50
2019-01-11T06:08:32.028Z,3.60
2019-01-11T06:10:58.122Z,3.50
2019-01-11T06:13:24.155Z,3.40
2019-01-11T06:15:50.293Z,3.40
2019-01-11T06:18:16.335Z,3.50
2019-01-11T06:20:42.351Z,3.40
2019-01-11T06:23:08.387Z,3.40
2019-01-11T06:25:34.409Z,3.30
2019-01-11T06:28:00.461Z,3.30
2019-01-11T06:30:26.477Z,3.20
2019-01-11T06:32:52.507Z,3.20
2019-01-11T06:35:18.552Z,3.10
2019-01-11T06:37:44.599Z,3.00
2019-01-11T06:40:12.080Z,3.00
2019-01-11T06:42:38.275Z,3.30
2019-01-11T06:45:08.138Z,3.00
2019-01-11T06:47:34.184Z,3.00
2019-01-11T06:50:00.327Z,3.10
2019-01-11T06:52:26.359Z,3.20
2019-01-11T06:54:52.410Z,3.20
2019-01-11T06:57:18.436Z,3.20
2019-01-11T06:59:44.472Z,3.30
2019-01-11T07:02:13.724Z,3.30
2019-01-11T07:04:39.772Z,3.40
2019-01-11T07:07:05.799Z,3.40
2019-01-11T07:09:31.843Z,3.40
2019-01-11T07:11:57.974Z,3.40
2019-01-11T07:14:24.003Z,3.40
2019-01-11T07:16:50.048Z,3.40
2019-01-11T07:19:16.127Z,3.40
2019-01-11T07:21:42.864Z,3.40
2019-01-11T07:24:08.888Z,3.40
2019-01-11T07:26:34.944Z,3.40
2019-01-11T07:29:00.973Z,3.50
2019-01-11T07:31:27.112Z,3.60
2019-01-11T07:33:53.243Z,3.40
2019-01-11T07:36:21.179Z,3.30
2019-01-11T07:39:09.015Z,3.20
2019-01-11T07:41:35.045Z,3.10
2019-01-11T07:44:01.063Z,3.10
2019-01-11T07:46:27.219Z,3.10
2019-01-11T07:48:53.275Z,3.00
2019-01-11T07:51:19.292Z,3.00
2019-01-11T07:53:45.352Z,3.00
2019-01-11T07:56:11.368Z,3.00
2019-01-11T07:58:37.420Z,3.00
2019-01-11T08:01:03.465Z,3.00
2019-01-11T08:03:29.492Z,3.00
2019-01-11T08:05:55.513Z,3.00
2019-01-11T08:08:21.581Z,3.10
2019-01-11T08:10:47.605Z,3.10
2019-01-11T08:13:13.693Z,3.10
2019-01-11T08:15:39.765Z,3.10
2019-01-11T08:18:05.912Z,3.20
2019-01-11T08:20:31.939Z,3.20
2019-01-11T08:22:57.995Z,3.20
2019-01-11T08:25:24.028Z,3.20
2019-01-11T08:27:50.503Z,3.30
2019-01-11T08:30:16.764Z,3.30
2019-01-11T08:32:43.010Z,3.30
2019-01-11T08:35:10.164Z,3.20
2019-01-11T08:37:36.691Z,3.30
2019-01-11T08:40:04.931Z,3.40
2019-01-11T08:42:30.968Z,3.50
2019-01-11T08:44:58.427Z,3.50
2019-01-11T08:47:24.482Z,3.60
2019-01-11T08:49:50.535Z,3.70
2019-01-11T08:52:16.599Z,3.70
2019-01-11T08:54:42.733Z,3.70
2019-01-11T08:57:08.752Z,3.70
2019-01-11T08:59:34.800Z,3.60
2019-01-11T09:02:00.829Z,3.60
2019-01-11T09:04:27.816Z,3.60
2019-01-11T09:06:54.076Z,3.50
2019-01-11T09:09:20.125Z,3.50
2019-01-11T09:11:46.135Z,3.50
2019-01-11T09:14:14.099Z,3.40
2019-01-11T09:16:40.143Z,3.40
2019-01-11T09:19:06.151Z,3.50
2019-01-11T09:21:32.192Z,3.50
2019-01-11T09:23:58.227Z,3.60
2019-01-11T09:26:24.382Z,3.60
2019-01-11T09:28:50.444Z,3.60
2019-01-11T09:31:16.468Z,3.70
2019-01-11T09:33:42.509Z,3.70
2019-01-11T09:36:08.580Z,3.80
2019-01-11T09:38:34.653Z,3.80
2019-01-11T09:41:00.771Z,3.80
2019-01-11T09:43:26.797Z,3.80
2019-01-11T09:45:52.841Z,3.80
2019-01-11T09:48:18.847Z,3.90
2019-01-11T09:50:44.890Z,3.90
2019-01-11T09:53:10.955Z,3.90
2019-01-11T09:55:37.016Z,3.90
2019-01-11T09:58:03.143Z,3.30
2019-01-11T10:00:29.192Z,4.00
2019-01-11T10:02:57.120Z,4.00
2019-01-11T10:05:23.139Z,4.10
2019-01-11T10:07:49.275Z,4.00
2019-01-11T10:10:15.296Z,4.00
2019-01-11T10:12:41.324Z,4.10
2019-01-11T10:15:09.173Z,4.10
2019-01-11T10:17:35.215Z,4.10
2019-01-11T10:20:01.255Z,4.20
2019-01-11T10:22:27.305Z,4.30
2019-01-11T10:24:53.332Z,4.30
2019-01-11T10:27:19.365Z,4.30
2019-01-11T10:29:45.423Z,4.30
2019-01-11T10:32:11.553Z,4.20
2019-01-11T10:34:37.598Z,4.20
2019-01-11T10:37:03.652Z,4.20
2019-01-11T10:39:29.708Z,4.10
2019-01-11T10:41:55.724Z,4.10
2019-01-11T10:44:21.740Z,4.10
2019-01-11T10:46:49.139Z,4.10
2019-01-11T10:49:15.412Z,4.10
2019-01-11T10:51:41.555Z,4.10
2019-01-11T10:54:09.484Z,4.10
2019-01-11T10:56:35.515Z,4.10
2019-01-11T10:59:01.558Z,4.20
2019-01-11T11:01:27.658Z,4.20
2019-01-11T11:03:53.703Z,4.30
2019-01-11T11:06:19.716Z,4.30
2019-01-11T11:08:45.759Z,4.30
2019-01-11T11:11:11.952Z,4.40
2019-01-11T11:13:38.012Z,4.30
2019-01-11T11:16:04.063Z,4.30
2019-01-11T11:18:31.157Z,4.30
2019-01-11T11:20:57.176Z,4.40
2019-01-11T11:23:23.203Z,4.40
2019-01-11T11:25:49.239Z,4.50
2019-01-11T11:28:15.280Z,4.50
2019-01-11T11:30:41.306Z,4.50
2019-01-11T11:33:07.367Z,4.50
2019-01-11T11:35:33.483Z,4.50
2019-01-11T11:37:59.533Z,4.50
2019-01-11T11:40:25.579Z,4.50
2019-01-11T11:42:51.612Z,4.50
2019-01-11T11:45:17.627Z,4.50
2019-01-11T11:47:43.685Z,4.40
2019-01-11T11:50:09.728Z,4.30
2019-01-11T11:52:35.784Z,4.30
2019-01-11T11:55:02.924Z,4.30
2019-01-11T11:57:28.951Z,4.30
2019-01-11T11:59:54.997Z,4.30
2019-01-11T12:02:21.023Z,4.40
2019-01-11T12:04:47.060Z,4.50
2019-01-11T12:07:13.080Z,4.50
2019-01-11T12:09:39.125Z,4.50
2019-01-11T12:12:05.143Z,4.30
2019-01-11T12:14:31.204Z,4.20
2019-01-11T12:16:57.232Z,4.10
2019-01-11T12:19:23.300Z,4.00
2019-01-11T12:21:49.360Z,4.10
2019-01-11T12:24:15.368Z,4.10
2019-01-11T12:26:41.391Z,4.10
2019-01-11T12:29:07.862Z,4.10
2019-01-11T12:31:33.872Z,4.10
2019-01-11T12:33:59.924Z,4.00
2019-01-11T12:36:25.935Z,4.10
2019-01-11T12:38:52.105Z,4.20
2019-01-11T12:41:18.120Z,4.10
2019-01-11T12:43:44.160Z,4.10
2019-01-11T12:46:10.183Z,4.10
2019-01-11T12:48:36.220Z,4.10
2019-01-11T12:51:02.243Z,4.10
2019-01-11T12:53:28.351Z,4.10
2019-01-11T12:55:54.371Z,4.10
2019-01-11T12:58:20.403Z,4.00
2019-01-11T13:00:46.432Z,4.00
2019-01-11T13:03:12.448Z,4.10
2019-01-11T13:05:38.497Z,4.10
2019-01-11T13:08:04.527Z,4.10
2019-01-11T13:10:30.544Z,4.00
2019-01-11T13:12:56.667Z,4.10
2019-01-11T13:15:22.705Z,4.20
2019-01-11T13:17:48.757Z,4.20
2019-01-11T13:20:16.580Z,4.10
2019-01-11T13:22:42.616Z,4.10
2019-01-11T13:25:08.640Z,4.10
2019-01-11T13:27:34.764Z,4.00
2019-01-11T13:30:00.967Z,3.90
2019-01-11T13:32:27.020Z,3.90
2019-01-11T13:34:53.076Z,3.80
2019-01-11T13:37:19.134Z,3.80
2019-01-11T13:39:45.182Z,3.90
2019-01-11T13:42:11.196Z,3.80
2019-01-11T13:44:37.221Z,3.80
2019-01-11T13:47:03.258Z,3.80
2019-01-11T13:49:29.283Z,3.80
2019-01-11T13:51:55.344Z,3.80
2019-01-11T13:54:21.395Z,3.80
2019-01-11T13:56:47.439Z,3.80
2019-01-11T13:59:13.587Z,4.00
2019-01-11T14:01:39.637Z,4.00
2019-01-11T14:04:05.767Z,4.10
2019-01-11T14:06:31.860Z,4.20
2019-01-11T14:08:57.900Z,4.20
2019-01-11T14:11:23.946Z,4.10
2019-01-11T14:13:51.544Z,4.20
2019-01-11T14:16:17.556Z,4.10
2019-01-11T14:18:43.603Z,4.20
2019-01-11T14:21:09.652Z,4.20
2019-01-11T14:23:35.672Z,4.20
2019-01-11T14:26:01.696Z,4.30
2019-01-11T14:28:27.771Z,4.30
2019-01-11T14:30:53.802Z,4.20
2019-01-11T14:33:19.947Z,4.00
2019-01-11T14:35:45.968Z,4.00
2019-01-11T14:38:12.003Z,4.00
2019-01-11T14:40:38.023Z,4.00
2019-01-11T14:43:04.065Z,4.00
2019-01-11T14:45:30.116Z,4.10
2019-01-11T14:47:56.148Z,4.10
2019-01-11T14:50:22.204Z,4.20
2019-01-11T14:52:48.242Z,4.20
2019-01-11T14:55:14.293Z,4.30
2019-01-11T14:57:40.375Z,4.30
2019-01-11T15:00:18.224Z,4.20
2019-01-11T15:02:44.391Z,4.20
2019-01-11T15:05:11.772Z,4.10
2019-01-11T15:07:37.825Z,4.10
2019-01-11T15:10:07.328Z,4.00
2019-01-11T15:12:53.256Z,4.00
2019-01-11T15:15:19.304Z,3.90
2019-01-11T15:17:45.335Z,4.10
2019-01-11T15:20:13.420Z,4.00
2019-01-11T15:22:39.619Z,4.00
2019-01-11T15:25:07.471Z,4.10
2019-01-11T15:27:35.298Z,4.10
2019-01-11T15:30:01.901Z,4.20
2019-01-11T15:32:30.079Z,4.20
2019-01-11T15:34:56.434Z,4.20
2019-01-11T15:37:22.940Z,4.20
2019-01-11T15:39:49.567Z,4.20
2019-01-11T15:42:15.994Z,4.20
2019-01-11T15:44:43.644Z,4.20
2019-01-11T15:47:09.983Z,4.20
2019-01-11T15:49:36.088Z,4.20
2019-01-11T15:52:02.148Z,4.00
2019-01-11T15:54:28.184Z,4.00
2019-01-11T15:56:54.259Z,4.10
2019-01-11T15:59:20.271Z,4.10
2019-01-11T16:01:50.828Z,4.10
2019-01-11T16:04:16.868Z,4.10
2019-01-11T16:06:42.940Z,4.00
2019-01-11T16:09:55.323Z,4.10
2019-01-11T16:12:22.128Z,4.10
2019-01-11T16:15:10.109Z,4.10
2019-01-11T16:17:36.143Z,4.10
2019-01-11T16:20:05.984Z,4.10
2019-01-11T16:22:32.033Z,4.20
2019-01-11T16:24:58.092Z,4.30
2019-01-11T16:27:24.132Z,4.20
2019-01-11T16:29:50.156Z,4.20
2019-01-11T16:32:16.356Z,4.10
2019-01-11T16:34:42.383Z,4.10
2019-01-11T16:37:08.709Z,4.00
2019-01-11T16:39:34.879Z,4.00
2019-01-11T16:42:01.000Z,4.10
2019-01-11T16:44:27.144Z,4.10
2019-01-11T16:46:53.151Z,4.20
2019-01-11T16:49:19.212Z,4.30
2019-01-11T16:51:45.317Z,4.40
2019-01-11T16:54:11.360Z,4.30
2019-01-11T16:56:49.201Z,4.30
2019-01-11T16:59:15.337Z,4.60
2019-01-11T17:01:41.388Z,4.20
2019-01-11T17:04:07.418Z,4.20
2019-01-11T17:06:33.453Z,4.20
2019-01-11T17:08:59.495Z,4.10
2019-01-11T17:11:25.571Z,4.10
2019-01-11T17:13:51.642Z,4.10
2019-01-11T17:16:17.654Z,4.00
2019-01-11T17:18:43.705Z,3.90
2019-01-11T17:21:09.720Z,3.90
2019-01-11T17:23:35.739Z,3.80
2019-01-11T17:26:01.800Z,3.80
2019-01-11T17:28:27.816Z,3.80
2019-01-11T17:30:53.951Z,3.70
2019-01-11T17:33:19.988Z,3.70
2019-01-11T17:35:46.024Z,3.70
2019-01-11T17:38:12.048Z,3.70
2019-01-11T17:40:57.987Z,3.60
2019-01-11T17:43:24.005Z,3.50
2019-01-11T17:45:50.064Z,3.70
2019-01-11T17:48:16.083Z,3.70
2019-01-11T17:50:42.107Z,3.80
2019-01-11T17:53:08.156Z,3.80
2019-01-11T17:55:34.207Z,3.80
2019-01-11T17:58:00.236Z,3.90
2019-01-11T18:00:26.512Z,3.90
2019-01-11T18:02:52.536Z,3.90
2019-01-11T18:05:18.575Z,3.80
2019-01-11T18:07:44.601Z,3.90
2019-01-11T18:10:10.946Z,3.90
2019-01-11T18:12:37.208Z,3.80
2019-01-11T18:15:07.067Z,3.90
2019-01-11T18:17:33.083Z,3.90
2019-01-11T18:19:59.184Z,4.00
2019-01-11T18:22:25.265Z,4.00
2019-01-11T18:24:51.334Z,4.10
2019-01-11T18:27:17.384Z,4.20
2019-01-11T18:29:43.465Z,4.20
2019-01-11T18:32:09.501Z,4.20
2019-01-11T18:34:35.555Z,4.30
2019-01-11T18:37:01.588Z,4.20
2019-01-11T18:39:27.653Z,4.20
2019-01-11T18:41:53.701Z,4.20
2019-01-11T18:44:19.768Z,4.30
2019-01-11T18:46:45.787Z,4.30
2019-01-11T18:49:11.826Z,4.40
2019-01-11T18:51:37.978Z,4.30
2019-01-11T18:54:04.003Z,4.30
2019-01-11T18:56:30.108Z,4.30
2019-01-11T18:58:56.131Z,4.30
2019-01-11T19:01:22.167Z,4.30
2019-01-11T19:03:50.227Z,4.20
2019-01-11T19:06:16.275Z,4.20
2019-01-11T19:08:42.407Z,4.20
2019-01-11T19:11:08.429Z,4.20
2019-01-11T19:13:34.478Z,4.10
2019-01-11T19:16:00.534Z,4.20
2019-01-11T19:18:26.577Z,4.20
2019-01-11T19:20:52.712Z,4.20
2019-01-11T19:23:20.528Z,4.20
2019-01-11T19:25:46.682Z,4.20
2019-01-11T19:28:12.720Z,4.20
2019-01-11T19:30:38.833Z,4.30
2019-01-11T19:33:04.909Z,4.30
2019-01-11T19:35:31.049Z,4.30
2019-01-11T19:37:57.219Z,4.40
2019-01-11T19:40:23.279Z,4.40
2019-01-11T19:42:49.284Z,4.50
2019-01-11T19:45:16.000Z,4.50
2019-01-11T19:47:42.046Z,4.50
2019-01-11T19:50:10.724Z,4.50
2019-01-11T19:52:36.781Z,4.60
2019-01-11T19:55:05.088Z,4.60
2019-01-11T19:57:31.176Z,4.60
2019-01-11T19:59:57.312Z,4.70
2019-01-11T20:02:23.342Z,4.70
2019-01-11T20:04:49.403Z,4.70
2019-01-11T20:07:15.430Z,4.70
2019-01-11T20:09:42.668Z,4.70
2019-01-11T20:12:08.791Z,4.80
2019-01-11T20:14:54.926Z,4.80
2019-01-11T20:17:21.056Z,4.60
2019-01-11T20:19:47.101Z,4.80
2019-01-11T20:22:13.112Z,4.80
2019-01-11T20:24:39.148Z,4.80
2019-01-11T20:27:05.160Z,4.70
2019-01-11T20:29:31.301Z,4.70
2019-01-11T20:31:57.323Z,4.70
2019-01-11T20:34:23.337Z,4.80
2019-01-11T20:36:53.168Z,4.80
2019-01-11T20:39:19.185Z,4.70
2019-01-11T20:41:45.297Z,4.70
2019-01-11T20:44:11.313Z,4.70
2019-01-11T20:46:37.343Z,4.70
2019-01-11T20:49:03.364Z,4.80
2019-01-11T20:51:29.407Z,4.80
2019-01-11T20:53:55.485Z,4.70
2019-01-11T20:56:21.544Z,4.70
2019-01-11T20:58:49.016Z,4.80
2019-01-11T21:01:16.352Z,4.70
2019-01-11T21:03:42.398Z,4.80
2019-01-11T21:06:08.404Z,4.80
2019-01-11T21:08:34.449Z,4.80
2019-01-11T21:11:00.524Z,4.90
2019-01-11T21:13:26.619Z,4.90
2019-01-11T21:15:52.660Z,4.90
2019-01-11T21:18:18.679Z,4.90
2019-01-11T21:20:44.719Z,4.90
2019-01-11T21:23:10.808Z,4.90
2019-01-11T21:25:36.844Z,4.90
2019-01-11T21:28:03.064Z,4.90
2019-01-11T21:30:29.119Z,4.90
2019-01-11T21:32:55.161Z,4.90
2019-01-11T21:35:21.295Z,5.00
2019-01-11T21:37:47.336Z,5.00
2019-01-11T21:40:15.349Z,5.10
2019-01-11T21:42:41.397Z,5.00
2019-01-11T21:45:08.775Z,5.00
2019-01-11T21:47:34.963Z,5.10
2019-01-11T21:50:00.988Z,5.10
2019-01-11T21:52:26.999Z,5.10
2019-01-11T21:54:53.076Z,5.10
2019-01-11T21:57:19.091Z,5.10
2019-01-11T21:59:45.113Z,5.10
2019-01-11T22:02:11.151Z,5.10
2019-01-11T22:04:37.172Z,5.10
2019-01-11T22:07:03.239Z,5.20
2019-01-11T22:09:29.256Z,5.20
2019-01-11T22:11:55.361Z,5.20
2019-01-11T22:14:21.379Z,5.20
2019-01-11T22:16:47.420Z,5.20
2019-01-11T22:19:13.544Z,5.30
2019-01-11T22:21:39.584Z,5.30
2019-01-11T22:24:05.681Z,5.30
2019-01-11T22:26:31.788Z,5.30
2019-01-11T22:28:57.832Z,5.30
2019-01-11T22:31:23.853Z,5.30
2019-01-11T22:33:50.101Z,5.30
2019-01-11T22:36:16.200Z,5.30
2019-01-11T22:38:42.280Z,5.30
2019-01-11T22:41:08.331Z,5.20
2019-01-11T22:43:34.352Z,5.20
2019-01-11T22:46:00.389Z,5.10
2019-01-11T22:48:26.449Z,5.10
2019-01-11T22:51:12.385Z,5.20
2019-01-11T22:53:38.393Z,5.10
2019-01-11T22:56:04.448Z,5.20
2019-01-11T22:58:30.523Z,5.20
2019-01-11T23:01:03.386Z,5.30
2019-01-11T23:03:33.201Z,5.30
2019-01-11T23:06:09.028Z,5.40
2019-01-11T23:08:31.132Z,5.40
2019-01-11T23:11:38.464Z,5.40
2019-01-11T23:14:04.621Z,5.40
2019-01-11T23:16:32.766Z,5.50
2019-01-11T23:18:58.794Z,5.50
2019-01-11T23:21:25.893Z,5.40
2019-01-11T23:23:51.942Z,5.40
2019-01-11T23:26:17.963Z,5.40
2019-01-11T23:28:44.244Z,5.40
2019-01-11T23:31:10.276Z,5.50
2019-01-11T23:33:36.297Z,5.50
2019-01-11T23:36:02.371Z,5.50
2019-01-11T23:38:28.425Z,5.50
2019-01-11T23:40:54.439Z,5.50
2019-01-11T23:43:20.472Z,5.50
2019-01-11T23:45:46.604Z,5.40
2019-01-11T23:48:12.676Z,5.50
2019-01-11T23:50:38.736Z,5.40
2019-01-11T23:53:04.799Z,5.50
2019-01-11T23:55:30.814Z,5.50
2019-01-11T23:57:56.851Z,5.50
